sensor_id;sensor_type;location;lat;lon;timestamp;P1;durP1;ratioP1;P2;durP2;ratioP2
62633;SDS011;48704;50.534;6.442;2022-07-22T00:02:21;18.45;;;10.80;;
62633;SDS011;48704;50.534;6.442;2022-07-22T00:04:47;15.30;;;8.77;;
62633;SDS011;48704;50.534;6.442;2022-07-22T00:07:13;16.35;;;8.70;;
62633;SDS011;48704;50.534;6.442;2022-07-22T00:09:39;15.88;;;8.55;;
62633;SDS011;48704;50.534;6.442;2022-07-22T00:12:05;15.48;;;8.50;;
62633;SDS011;48704;50.534;6.442;2022-07-22T00:14:31;15.68;;;8.65;;
62633;SDS011;48704;50.534;6.442;2022-07-22T00:16:56;13.93;;;8.73;;
62633;SDS011;48704;50.534;6.442;2022-07-22T00:19:22;16.88;;;8.90;;
62633;SDS011;48704;50.534;6.442;2022-07-22T00:21:50;17.08;;;9.65;;
62633;SDS011;48704;50.534;6.442;2022-07-22T00:24:16;13.43;;;8.65;;
62633;SDS011;48704;50.534;6.442;2022-07-22T00:26:42;16.52;;;9.27;;
62633;SDS011;48704;50.534;6.442;2022-07-22T00:29:08;17.60;;;9.15;;
62633;SDS011;48704;50.534;6.442;2022-07-22T00:31:34;16.33;;;9.07;;
62633;SDS011;48704;50.534;6.442;2022-07-22T00:34:00;20.92;;;10.10;;
62633;SDS011;48704;50.534;6.442;2022-07-22T00:36:26;13.23;;;8.05;;
62633;SDS011;48704;50.534;6.442;2022-07-22T00:38:53;14.30;;;8.68;;
62633;SDS011;48704;50.534;6.442;2022-07-22T00:41:18;15.30;;;8.45;;
62633;SDS011;48704;50.534;6.442;2022-07-22T00:43:48;15.73;;;7.82;;
62633;SDS011;48704;50.534;6.442;2022-07-22T00:46:16;20.63;;;9.38;;
62633;SDS011;48704;50.534;6.442;2022-07-22T00:48:42;16.63;;;8.30;;
62633;SDS011;48704;50.534;6.442;2022-07-22T00:51:07;15.60;;;8.85;;
62633;SDS011;48704;50.534;6.442;2022-07-22T00:53:34;16.55;;;8.35;;
62633;SDS011;48704;50.534;6.442;2022-07-22T00:56:00;14.80;;;8.07;;
62633;SDS011;48704;50.534;6.442;2022-07-22T00:58:28;15.27;;;8.57;;
62633;SDS011;48704;50.534;6.442;2022-07-22T01:00:54;14.90;;;8.45;;
62633;SDS011;48704;50.534;6.442;2022-07-22T01:03:20;17.17;;;9.00;;
62633;SDS011;48704;50.534;6.442;2022-07-22T01:05:45;14.27;;;8.88;;
62633;SDS011;48704;50.534;6.442;2022-07-22T01:08:11;18.55;;;9.55;;
62633;SDS011;48704;50.534;6.442;2022-07-22T01:10:37;14.82;;;8.48;;
62633;SDS011;48704;50.534;6.442;2022-07-22T01:13:02;17.52;;;9.05;;
62633;SDS011;48704;50.534;6.442;2022-07-22T01:15:28;15.73;;;9.45;;
62633;SDS011;48704;50.534;6.442;2022-07-22T01:17:53;16.02;;;8.88;;
62633;SDS011;48704;50.534;6.442;2022-07-22T01:20:19;17.88;;;9.52;;
62633;SDS011;48704;50.534;6.442;2022-07-22T01:22:45;14.85;;;9.45;;
62633;SDS011;48704;50.534;6.442;2022-07-22T01:25:11;17.15;;;8.65;;
62633;SDS011;48704;50.534;6.442;2022-07-22T01:27:37;15.13;;;8.23;;
62633;SDS011;48704;50.534;6.442;2022-07-22T01:30:06;19.70;;;9.85;;
62633;SDS011;48704;50.534;6.442;2022-07-22T01:32:32;14.80;;;8.77;;
62633;SDS011;48704;50.534;6.442;2022-07-22T01:34:59;20.50;;;10.57;;
62633;SDS011;48704;50.534;6.442;2022-07-22T01:37:24;16.45;;;9.90;;
62633;SDS011;48704;50.534;6.442;2022-07-22T01:39:50;18.98;;;9.65;;
62633;SDS011;48704;50.534;6.442;2022-07-22T01:42:15;17.40;;;10.10;;
62633;SDS011;48704;50.534;6.442;2022-07-22T01:44:41;18.63;;;9.32;;
62633;SDS011;48704;50.534;6.442;2022-07-22T01:47:07;18.27;;;9.48;;
62633;SDS011;48704;50.534;6.442;2022-07-22T01:49:33;16.90;;;10.15;;
62633;SDS011;48704;50.534;6.442;2022-07-22T01:52:00;19.65;;;10.23;;
62633;SDS011;48704;50.534;6.442;2022-07-22T01:54:27;19.33;;;10.15;;
62633;SDS011;48704;50.534;6.442;2022-07-22T01:56:52;16.80;;;9.90;;
62633;SDS011;48704;50.534;6.442;2022-07-22T01:59:18;17.70;;;9.88;;
62633;SDS011;48704;50.534;6.442;2022-07-22T02:01:44;22.92;;;10.73;;
62633;SDS011;48704;50.534;6.442;2022-07-22T02:04:09;17.95;;;10.90;;
62633;SDS011;48704;50.534;6.442;2022-07-22T02:06:35;19.67;;;9.27;;
62633;SDS011;48704;50.534;6.442;2022-07-22T02:09:00;19.58;;;10.98;;
62633;SDS011;48704;50.534;6.442;2022-07-22T02:11:26;28.35;;;10.85;;
62633;SDS011;48704;50.534;6.442;2022-07-22T02:13:52;22.75;;;10.15;;
62633;SDS011;48704;50.534;6.442;2022-07-22T02:16:17;18.05;;;10.32;;
62633;SDS011;48704;50.534;6.442;2022-07-22T02:18:43;17.95;;;9.43;;
62633;SDS011;48704;50.534;6.442;2022-07-22T02:21:09;19.27;;;10.18;;
62633;SDS011;48704;50.534;6.442;2022-07-22T02:23:34;17.52;;;8.88;;
62633;SDS011;48704;50.534;6.442;2022-07-22T02:26:00;15.98;;;9.20;;
62633;SDS011;48704;50.534;6.442;2022-07-22T02:28:26;19.27;;;9.52;;
62633;SDS011;48704;50.534;6.442;2022-07-22T02:30:51;17.23;;;10.25;;
62633;SDS011;48704;50.534;6.442;2022-07-22T02:33:17;16.73;;;8.15;;
62633;SDS011;48704;50.534;6.442;2022-07-22T02:35:43;15.88;;;8.40;;
62633;SDS011;48704;50.534;6.442;2022-07-22T02:38:09;15.75;;;7.93;;
62633;SDS011;48704;50.534;6.442;2022-07-22T02:40:34;18.98;;;8.38;;
62633;SDS011;48704;50.534;6.442;2022-07-22T02:43:00;16.25;;;7.78;;
62633;SDS011;48704;50.534;6.442;2022-07-22T02:45:26;13.75;;;7.03;;
62633;SDS011;48704;50.534;6.442;2022-07-22T02:47:53;15.35;;;6.72;;
62633;SDS011;48704;50.534;6.442;2022-07-22T02:50:20;13.00;;;6.63;;
62633;SDS011;48704;50.534;6.442;2022-07-22T02:52:47;15.90;;;8.07;;
62633;SDS011;48704;50.534;6.442;2022-07-22T02:55:13;15.40;;;7.63;;
62633;SDS011;48704;50.534;6.442;2022-07-22T02:57:39;15.05;;;7.63;;
62633;SDS011;48704;50.534;6.442;2022-07-22T03:00:06;13.90;;;7.07;;
62633;SDS011;48704;50.534;6.442;2022-07-22T03:02:36;20.23;;;10.07;;
62633;SDS011;48704;50.534;6.442;2022-07-22T03:05:03;14.15;;;7.85;;
62633;SDS011;48704;50.534;6.442;2022-07-22T03:07:29;17.27;;;7.35;;
62633;SDS011;48704;50.534;6.442;2022-07-22T03:09:55;14.00;;;7.63;;
62633;SDS011;48704;50.534;6.442;2022-07-22T03:12:20;14.13;;;7.80;;
62633;SDS011;48704;50.534;6.442;2022-07-22T03:14:46;13.13;;;8.32;;
62633;SDS011;48704;50.534;6.442;2022-07-22T03:17:12;17.52;;;8.25;;
62633;SDS011;48704;50.534;6.442;2022-07-22T03:19:37;13.82;;;7.75;;
62633;SDS011;48704;50.534;6.442;2022-07-22T03:22:03;16.17;;;8.13;;
62633;SDS011;48704;50.534;6.442;2022-07-22T03:24:28;10.10;;;6.13;;
62633;SDS011;48704;50.534;6.442;2022-07-22T03:26:54;15.68;;;7.95;;
62633;SDS011;48704;50.534;6.442;2022-07-22T03:29:20;14.18;;;6.95;;
62633;SDS011;48704;50.534;6.442;2022-07-22T03:31:45;10.38;;;6.65;;
62633;SDS011;48704;50.534;6.442;2022-07-22T03:34:11;12.05;;;6.80;;
62633;SDS011;48704;50.534;6.442;2022-07-22T03:36:37;12.90;;;6.90;;
62633;SDS011;48704;50.534;6.442;2022-07-22T03:39:03;13.93;;;6.88;;
62633;SDS011;48704;50.534;6.442;2022-07-22T03:41:28;9.00;;;5.80;;
62633;SDS011;48704;50.534;6.442;2022-07-22T03:43:54;11.10;;;5.07;;
62633;SDS011;48704;50.534;6.442;2022-07-22T03:46:20;12.27;;;6.10;;
62633;SDS011;48704;50.534;6.442;2022-07-22T03:48:45;11.48;;;6.22;;
62633;SDS011;48704;50.534;6.442;2022-07-22T03:51:11;11.50;;;6.28;;
62633;SDS011;48704;50.534;6.442;2022-07-22T03:53:37;10.35;;;6.20;;
62633;SDS011;48704;50.534;6.442;2022-07-22T03:56:02;12.98;;;6.55;;
62633;SDS011;48704;50.534;6.442;2022-07-22T03:58:28;13.38;;;6.13;;
62633;SDS011;48704;50.534;6.442;2022-07-22T04:00:54;10.75;;;5.78;;
62633;SDS011;48704;50.534;6.442;2022-07-22T04:03:20;15.10;;;6.30;;
62633;SDS011;48704;50.534;6.442;2022-07-22T04:05:45;11.70;;;6.35;;
62633;SDS011;48704;50.534;6.442;2022-07-22T04:08:11;13.27;;;6.15;;
62633;SDS011;48704;50.534;6.442;2022-07-22T04:10:37;10.93;;;6.60;;
62633;SDS011;48704;50.534;6.442;2022-07-22T04:13:04;12.02;;;6.15;;
62633;SDS011;48704;50.534;6.442;2022-07-22T04:15:29;12.38;;;6.45;;
62633;SDS011;48704;50.534;6.442;2022-07-22T04:17:55;9.70;;;6.10;;
62633;SDS011;48704;50.534;6.442;2022-07-22T04:20:21;12.00;;;6.18;;
62633;SDS011;48704;50.534;6.442;2022-07-22T04:22:46;12.43;;;6.25;;
62633;SDS011;48704;50.534;6.442;2022-07-22T04:25:12;11.07;;;6.40;;
62633;SDS011;48704;50.534;6.442;2022-07-22T04:27:38;11.02;;;6.78;;
62633;SDS011;48704;50.534;6.442;2022-07-22T04:30:04;9.80;;;6.00;;
62633;SDS011;48704;50.534;6.442;2022-07-22T04:32:30;9.70;;;5.88;;
62633;SDS011;48704;50.534;6.442;2022-07-22T04:34:56;12.73;;;6.18;;
62633;SDS011;48704;50.534;6.442;2022-07-22T04:37:21;12.60;;;6.00;;
62633;SDS011;48704;50.534;6.442;2022-07-22T04:39:47;11.98;;;6.20;;
62633;SDS011;48704;50.534;6.442;2022-07-22T04:42:12;13.35;;;6.50;;
62633;SDS011;48704;50.534;6.442;2022-07-22T04:44:38;15.25;;;7.85;;
62633;SDS011;48704;50.534;6.442;2022-07-22T04:47:03;10.45;;;7.28;;
62633;SDS011;48704;50.534;6.442;2022-07-22T04:49:29;10.85;;;6.47;;
62633;SDS011;48704;50.534;6.442;2022-07-22T04:51:55;11.73;;;6.88;;
62633;SDS011;48704;50.534;6.442;2022-07-22T04:54:20;10.45;;;7.40;;
62633;SDS011;48704;50.534;6.442;2022-07-22T04:56:46;10.65;;;6.60;;
62633;SDS011;48704;50.534;6.442;2022-07-22T04:59:11;10.07;;;6.93;;
62633;SDS011;48704;50.534;6.442;2022-07-22T05:01:37;12.30;;;6.95;;
62633;SDS011;48704;50.534;6.442;2022-07-22T05:04:03;12.02;;;7.25;;
62633;SDS011;48704;50.534;6.442;2022-07-22T05:06:29;14.40;;;8.00;;
62633;SDS011;48704;50.534;6.442;2022-07-22T05:08:54;13.95;;;7.78;;
62633;SDS011;48704;50.534;6.442;2022-07-22T05:11:20;14.30;;;8.45;;
62633;SDS011;48704;50.534;6.442;2022-07-22T05:13:46;11.73;;;7.45;;
62633;SDS011;48704;50.534;6.442;2022-07-22T05:16:11;11.45;;;7.82;;
62633;SDS011;48704;50.534;6.442;2022-07-22T05:18:37;16.08;;;9.82;;
62633;SDS011;48704;50.534;6.442;2022-07-22T05:21:03;15.30;;;8.70;;
62633;SDS011;48704;50.534;6.442;2022-07-22T05:23:29;11.93;;;7.45;;
62633;SDS011;48704;50.534;6.442;2022-07-22T05:25:54;12.88;;;7.75;;
62633;SDS011;48704;50.534;6.442;2022-07-22T05:28:20;13.60;;;7.85;;
62633;SDS011;48704;50.534;6.442;2022-07-22T05:30:46;14.98;;;8.18;;
62633;SDS011;48704;50.534;6.442;2022-07-22T05:33:11;14.15;;;7.88;;
62633;SDS011;48704;50.534;6.442;2022-07-22T05:35:37;13.93;;;8.18;;
62633;SDS011;48704;50.534;6.442;2022-07-22T05:38:03;14.73;;;7.93;;
62633;SDS011;48704;50.534;6.442;2022-07-22T05:40:30;17.17;;;8.73;;
62633;SDS011;48704;50.534;6.442;2022-07-22T05:42:56;10.77;;;6.97;;
62633;SDS011;48704;50.534;6.442;2022-07-22T05:45:21;14.52;;;8.45;;
62633;SDS011;48704;50.534;6.442;2022-07-22T05:47:47;15.70;;;9.27;;
62633;SDS011;48704;50.534;6.442;2022-07-22T05:50:12;15.00;;;8.77;;
62633;SDS011;48704;50.534;6.442;2022-07-22T05:52:38;13.38;;;8.43;;
62633;SDS011;48704;50.534;6.442;2022-07-22T05:55:04;11.80;;;8.20;;
62633;SDS011;48704;50.534;6.442;2022-07-22T05:57:31;15.50;;;7.88;;
62633;SDS011;48704;50.534;6.442;2022-07-22T05:59:56;12.57;;;7.80;;
62633;SDS011;48704;50.534;6.442;2022-07-22T06:02:22;12.55;;;7.65;;
62633;SDS011;48704;50.534;6.442;2022-07-22T06:04:48;12.40;;;7.28;;
62633;SDS011;48704;50.534;6.442;2022-07-22T06:07:13;14.32;;;7.65;;
62633;SDS011;48704;50.534;6.442;2022-07-22T06:09:39;11.85;;;8.10;;
62633;SDS011;48704;50.534;6.442;2022-07-22T06:12:05;13.18;;;7.97;;
62633;SDS011;48704;50.534;6.442;2022-07-22T06:14:31;11.45;;;7.47;;
62633;SDS011;48704;50.534;6.442;2022-07-22T06:16:56;14.95;;;8.10;;
62633;SDS011;48704;50.534;6.442;2022-07-22T06:19:22;14.77;;;8.60;;
62633;SDS011;48704;50.534;6.442;2022-07-22T06:21:49;17.27;;;9.23;;
62633;SDS011;48704;50.534;6.442;2022-07-22T06:24:15;15.98;;;9.52;;
62633;SDS011;48704;50.534;6.442;2022-07-22T06:26:41;14.18;;;8.90;;
62633;SDS011;48704;50.534;6.442;2022-07-22T06:29:07;15.75;;;9.20;;
62633;SDS011;48704;50.534;6.442;2022-07-22T06:31:33;17.58;;;9.85;;
62633;SDS011;48704;50.534;6.442;2022-07-22T06:33:58;17.55;;;10.18;;
62633;SDS011;48704;50.534;6.442;2022-07-22T06:36:24;21.33;;;11.82;;
62633;SDS011;48704;50.534;6.442;2022-07-22T06:38:50;18.77;;;11.15;;
62633;SDS011;48704;50.534;6.442;2022-07-22T06:41:15;21.27;;;11.45;;
62633;SDS011;48704;50.534;6.442;2022-07-22T06:43:44;23.60;;;12.02;;
62633;SDS011;48704;50.534;6.442;2022-07-22T06:46:10;25.98;;;12.60;;
62633;SDS011;48704;50.534;6.442;2022-07-22T06:48:36;22.73;;;12.05;;
62633;SDS011;48704;50.534;6.442;2022-07-22T06:51:02;23.30;;;14.10;;
62633;SDS011;48704;50.534;6.442;2022-07-22T06:53:28;21.48;;;12.40;;
62633;SDS011;48704;50.534;6.442;2022-07-22T06:55:53;26.67;;;14.65;;
62633;SDS011;48704;50.534;6.442;2022-07-22T06:58:19;22.00;;;13.27;;
62633;SDS011;48704;50.534;6.442;2022-07-22T07:00:45;23.38;;;13.27;;
62633;SDS011;48704;50.534;6.442;2022-07-22T07:03:12;25.83;;;14.98;;
62633;SDS011;48704;50.534;6.442;2022-07-22T07:05:38;23.85;;;14.57;;
62633;SDS011;48704;50.534;6.442;2022-07-22T07:08:04;22.10;;;13.52;;
62633;SDS011;48704;50.534;6.442;2022-07-22T07:10:29;23.90;;;14.32;;
62633;SDS011;48704;50.534;6.442;2022-07-22T07:12:56;23.48;;;14.10;;
62633;SDS011;48704;50.534;6.442;2022-07-22T07:15:23;28.17;;;14.85;;
62633;SDS011;48704;50.534;6.442;2022-07-22T07:17:49;24.65;;;14.40;;
62633;SDS011;48704;50.534;6.442;2022-07-22T07:20:15;23.98;;;14.32;;
62633;SDS011;48704;50.534;6.442;2022-07-22T07:22:40;22.83;;;14.02;;
62633;SDS011;48704;50.534;6.442;2022-07-22T07:25:07;21.63;;;14.65;;
62633;SDS011;48704;50.534;6.442;2022-07-22T07:27:33;20.65;;;13.65;;
62633;SDS011;48704;50.534;6.442;2022-07-22T07:29:59;23.10;;;14.02;;
62633;SDS011;48704;50.534;6.442;2022-07-22T07:32:25;23.40;;;13.82;;
62633;SDS011;48704;50.534;6.442;2022-07-22T07:34:51;23.00;;;13.73;;
62633;SDS011;48704;50.534;6.442;2022-07-22T07:37:16;27.30;;;14.57;;
62633;SDS011;48704;50.534;6.442;2022-07-22T07:39:42;23.45;;;14.02;;
62633;SDS011;48704;50.534;6.442;2022-07-22T07:42:07;25.13;;;14.65;;
62633;SDS011;48704;50.534;6.442;2022-07-22T07:44:33;23.27;;;14.13;;
62633;SDS011;48704;50.534;6.442;2022-07-22T07:46:59;20.52;;;12.77;;
62633;SDS011;48704;50.534;6.442;2022-07-22T07:49:24;25.70;;;14.43;;
62633;SDS011;48704;50.534;6.442;2022-07-22T07:51:50;22.98;;;14.13;;
62633;SDS011;48704;50.534;6.442;2022-07-22T07:54:16;20.73;;;13.65;;
62633;SDS011;48704;50.534;6.442;2022-07-22T07:56:42;22.08;;;14.05;;
62633;SDS011;48704;50.534;6.442;2022-07-22T07:59:08;23.13;;;11.85;;
62633;SDS011;48704;50.534;6.442;2022-07-22T08:01:34;22.48;;;11.95;;
62633;SDS011;48704;50.534;6.442;2022-07-22T08:03:59;19.50;;;11.32;;
62633;SDS011;48704;50.534;6.442;2022-07-22T08:06:25;21.70;;;11.98;;
62633;SDS011;48704;50.534;6.442;2022-07-22T08:08:51;16.35;;;10.55;;
62633;SDS011;48704;50.534;6.442;2022-07-22T08:11:16;17.83;;;10.98;;
62633;SDS011;48704;50.534;6.442;2022-07-22T08:13:43;19.95;;;11.98;;
62633;SDS011;48704;50.534;6.442;2022-07-22T08:16:08;17.92;;;10.30;;
62633;SDS011;48704;50.534;6.442;2022-07-22T08:18:35;19.02;;;10.40;;
62633;SDS011;48704;50.534;6.442;2022-07-22T08:21:01;17.58;;;9.98;;
62633;SDS011;48704;50.534;6.442;2022-07-22T08:23:27;16.83;;;9.50;;
62633;SDS011;48704;50.534;6.442;2022-07-22T08:25:53;14.02;;;8.93;;
62633;SDS011;48704;50.534;6.442;2022-07-22T08:28:18;12.52;;;8.35;;
62633;SDS011;48704;50.534;6.442;2022-07-22T08:30:44;13.00;;;8.48;;
62633;SDS011;48704;50.534;6.442;2022-07-22T08:33:10;13.40;;;8.70;;
62633;SDS011;48704;50.534;6.442;2022-07-22T08:35:36;14.93;;;8.68;;
62633;SDS011;48704;50.534;6.442;2022-07-22T08:38:01;12.80;;;8.73;;
62633;SDS011;48704;50.534;6.442;2022-07-22T08:40:27;11.32;;;8.10;;
62633;SDS011;48704;50.534;6.442;2022-07-22T08:42:53;11.32;;;7.57;;
62633;SDS011;48704;50.534;6.442;2022-07-22T08:45:19;14.77;;;9.15;;
62633;SDS011;48704;50.534;6.442;2022-07-22T08:47:46;14.75;;;9.50;;
62633;SDS011;48704;50.534;6.442;2022-07-22T08:50:13;12.55;;;8.55;;
62633;SDS011;48704;50.534;6.442;2022-07-22T08:52:38;16.75;;;9.10;;
62633;SDS011;48704;50.534;6.442;2022-07-22T08:55:05;10.50;;;7.40;;
62633;SDS011;48704;50.534;6.442;2022-07-22T08:57:32;13.82;;;9.18;;
62633;SDS011;48704;50.534;6.442;2022-07-22T08:59:58;16.63;;;8.65;;
62633;SDS011;48704;50.534;6.442;2022-07-22T09:02:26;12.40;;;8.73;;
62633;SDS011;48704;50.534;6.442;2022-07-22T09:07:26;13.43;;;8.25;;
62633;SDS011;48704;50.534;6.442;2022-07-22T09:09:54;11.73;;;7.82;;
62633;SDS011;48704;50.534;6.442;2022-07-22T09:12:20;12.70;;;7.88;;
62633;SDS011;48704;50.534;6.442;2022-07-22T09:14:48;14.40;;;8.43;;
62633;SDS011;48704;50.534;6.442;2022-07-22T09:17:29;11.95;;;6.88;;
62633;SDS011;48704;50.534;6.442;2022-07-22T09:20:02;11.50;;;7.65;;
62633;SDS011;48704;50.534;6.442;2022-07-22T09:22:40;12.73;;;7.18;;
62633;SDS011;48704;50.534;6.442;2022-07-22T09:25:24;10.02;;;6.35;;
62633;SDS011;48704;50.534;6.442;2022-07-22T09:27:54;11.70;;;6.60;;
62633;SDS011;48704;50.534;6.442;2022-07-22T09:33:18;9.18;;;6.53;;
62633;SDS011;48704;50.534;6.442;2022-07-22T09:35:45;9.70;;;6.10;;
62633;SDS011;48704;50.534;6.442;2022-07-22T09:38:13;11.73;;;7.38;;
62633;SDS011;48704;50.534;6.442;2022-07-22T09:40:44;9.68;;;6.53;;
62633;SDS011;48704;50.534;6.442;2022-07-22T09:43:15;13.40;;;7.07;;
62633;SDS011;48704;50.534;6.442;2022-07-22T09:45:46;10.32;;;6.22;;
62633;SDS011;48704;50.534;6.442;2022-07-22T09:48:17;9.90;;;6.45;;
62633;SDS011;48704;50.534;6.442;2022-07-22T09:50:44;7.95;;;5.95;;
62633;SDS011;48704;50.534;6.442;2022-07-22T09:53:11;8.95;;;5.78;;
62633;SDS011;48704;50.534;6.442;2022-07-22T09:55:38;9.35;;;6.00;;
62633;SDS011;48704;50.534;6.442;2022-07-22T09:58:05;7.03;;;5.05;;
62633;SDS011;48704;50.534;6.442;2022-07-22T10:00:32;7.70;;;5.20;;
62633;SDS011;48704;50.534;6.442;2022-07-22T10:02:59;9.48;;;4.95;;
62633;SDS011;48704;50.534;6.442;2022-07-22T10:05:38;7.25;;;5.10;;
62633;SDS011;48704;50.534;6.442;2022-07-22T10:08:05;7.20;;;5.78;;
62633;SDS011;48704;50.534;6.442;2022-07-22T10:10:32;7.63;;;5.40;;
62633;SDS011;48704;50.534;6.442;2022-07-22T10:13:00;7.05;;;4.68;;
62633;SDS011;48704;50.534;6.442;2022-07-22T10:15:27;6.07;;;4.50;;
62633;SDS011;48704;50.534;6.442;2022-07-22T10:17:55;5.63;;;3.92;;
62633;SDS011;48704;50.534;6.442;2022-07-22T10:20:25;7.00;;;4.10;;
62633;SDS011;48704;50.534;6.442;2022-07-22T10:22:56;7.53;;;4.55;;
62633;SDS011;48704;50.534;6.442;2022-07-22T10:25:27;9.40;;;4.65;;
62633;SDS011;48704;50.534;6.442;2022-07-22T10:28:03;5.82;;;4.47;;
62633;SDS011;48704;50.534;6.442;2022-07-22T10:30:31;7.32;;;4.93;;
62633;SDS011;48704;50.534;6.442;2022-07-22T10:33:12;5.65;;;4.25;;
62633;SDS011;48704;50.534;6.442;2022-07-22T10:38:11;7.20;;;4.10;;
62633;SDS011;48704;50.534;6.442;2022-07-22T10:41:22;6.13;;;4.05;;
62633;SDS011;48704;50.534;6.442;2022-07-22T10:46:07;6.93;;;4.30;;
62633;SDS011;48704;50.534;6.442;2022-07-22T10:56:28;7.10;;;4.13;;
62633;SDS011;48704;50.534;6.442;2022-07-22T10:59:15;8.20;;;4.38;;
62633;SDS011;48704;50.534;6.442;2022-07-22T11:01:49;4.85;;;3.47;;
62633;SDS011;48704;50.534;6.442;2022-07-22T11:04:24;5.82;;;4.22;;
62633;SDS011;48704;50.534;6.442;2022-07-22T11:06:53;7.00;;;4.20;;
62633;SDS011;48704;50.534;6.442;2022-07-22T11:09:21;6.32;;;3.90;;
62633;SDS011;48704;50.534;6.442;2022-07-22T11:11:55;5.57;;;3.90;;
62633;SDS011;48704;50.534;6.442;2022-07-22T11:16:53;4.88;;;3.78;;
62633;SDS011;48704;50.534;6.442;2022-07-22T11:19:22;6.22;;;3.92;;
62633;SDS011;48704;50.534;6.442;2022-07-22T11:21:54;8.25;;;4.35;;
62633;SDS011;48704;50.534;6.442;2022-07-22T11:24:39;6.43;;;4.00;;
62633;SDS011;48704;50.534;6.442;2022-07-22T11:27:09;6.47;;;4.00;;
62633;SDS011;48704;50.534;6.442;2022-07-22T11:29:39;6.93;;;4.40;;
62633;SDS011;48704;50.534;6.442;2022-07-22T11:32:10;6.35;;;4.35;;
62633;SDS011;48704;50.534;6.442;2022-07-22T11:34:37;7.95;;;4.88;;
62633;SDS011;48704;50.534;6.442;2022-07-22T11:37:07;4.80;;;3.83;;
62633;SDS011;48704;50.534;6.442;2022-07-22T11:39:33;4.68;;;3.70;;
62633;SDS011;48704;50.534;6.442;2022-07-22T11:42:00;9.02;;;4.32;;
62633;SDS011;48704;50.534;6.442;2022-07-22T11:44:26;6.05;;;4.22;;
62633;SDS011;48704;50.534;6.442;2022-07-22T11:46:54;6.50;;;4.13;;
62633;SDS011;48704;50.534;6.442;2022-07-22T11:49:23;5.93;;;4.60;;
62633;SDS011;48704;50.534;6.442;2022-07-22T11:51:50;6.63;;;3.80;;
62633;SDS011;48704;50.534;6.442;2022-07-22T11:54:16;8.30;;;4.68;;
62633;SDS011;48704;50.534;6.442;2022-07-22T11:56:43;6.57;;;3.85;;
62633;SDS011;48704;50.534;6.442;2022-07-22T11:59:11;6.40;;;4.60;;
62633;SDS011;48704;50.534;6.442;2022-07-22T12:01:38;5.90;;;4.10;;
62633;SDS011;48704;50.534;6.442;2022-07-22T12:04:06;9.63;;;4.85;;
62633;SDS011;48704;50.534;6.442;2022-07-22T12:06:35;5.20;;;4.00;;
62633;SDS011;48704;50.534;6.442;2022-07-22T12:11:33;6.20;;;4.07;;
62633;SDS011;48704;50.534;6.442;2022-07-22T12:14:08;7.18;;;4.15;;
62633;SDS011;48704;50.534;6.442;2022-07-22T12:16:36;5.70;;;4.57;;
62633;SDS011;48704;50.534;6.442;2022-07-22T12:19:03;7.90;;;4.70;;
62633;SDS011;48704;50.534;6.442;2022-07-22T12:21:30;8.27;;;5.00;;
62633;SDS011;48704;50.534;6.442;2022-07-22T12:26:41;8.68;;;5.80;;
62633;SDS011;48704;50.534;6.442;2022-07-22T12:29:17;7.20;;;5.13;;
62633;SDS011;48704;50.534;6.442;2022-07-22T12:31:46;8.27;;;4.95;;
62633;SDS011;48704;50.534;6.442;2022-07-22T12:34:16;8.88;;;5.15;;
62633;SDS011;48704;50.534;6.442;2022-07-22T12:36:54;8.63;;;5.43;;
62633;SDS011;48704;50.534;6.442;2022-07-22T12:39:19;7.40;;;5.18;;
62633;SDS011;48704;50.534;6.442;2022-07-22T12:41:46;8.00;;;6.20;;
62633;SDS011;48704;50.534;6.442;2022-07-22T12:44:14;8.13;;;5.35;;
62633;SDS011;48704;50.534;6.442;2022-07-22T12:46:48;8.77;;;6.18;;
62633;SDS011;48704;50.534;6.442;2022-07-22T12:49:19;11.32;;;6.93;;
62633;SDS011;48704;50.534;6.442;2022-07-22T12:54:33;9.88;;;6.18;;
62633;SDS011;48704;50.534;6.442;2022-07-22T12:57:00;11.43;;;6.93;;
62633;SDS011;48704;50.534;6.442;2022-07-22T12:59:26;11.73;;;7.28;;
62633;SDS011;48704;50.534;6.442;2022-07-22T13:01:52;11.70;;;6.80;;
62633;SDS011;48704;50.534;6.442;2022-07-22T13:04:17;10.48;;;6.85;;
62633;SDS011;48704;50.534;6.442;2022-07-22T13:06:43;12.52;;;7.07;;
62633;SDS011;48704;50.534;6.442;2022-07-22T13:09:09;13.20;;;8.00;;
62633;SDS011;48704;50.534;6.442;2022-07-22T13:11:34;14.07;;;7.82;;
62633;SDS011;48704;50.534;6.442;2022-07-22T13:14:08;13.82;;;7.85;;
62633;SDS011;48704;50.534;6.442;2022-07-22T13:16:34;15.50;;;8.52;;
62633;SDS011;48704;50.534;6.442;2022-07-22T13:19:00;17.65;;;8.52;;
62633;SDS011;48704;50.534;6.442;2022-07-22T13:21:26;11.23;;;7.55;;
62633;SDS011;48704;50.534;6.442;2022-07-22T13:23:52;14.73;;;8.60;;
62633;SDS011;48704;50.534;6.442;2022-07-22T13:26:17;15.30;;;8.77;;
62633;SDS011;48704;50.534;6.442;2022-07-22T13:28:43;16.40;;;9.52;;
62633;SDS011;48704;50.534;6.442;2022-07-22T13:31:09;16.98;;;9.85;;
62633;SDS011;48704;50.534;6.442;2022-07-22T13:33:34;16.88;;;8.82;;
62633;SDS011;48704;50.534;6.442;2022-07-22T13:36:00;16.38;;;9.80;;
62633;SDS011;48704;50.534;6.442;2022-07-22T13:38:27;15.18;;;8.95;;
62633;SDS011;48704;50.534;6.442;2022-07-22T13:40:52;17.95;;;9.73;;
62633;SDS011;48704;50.534;6.442;2022-07-22T13:43:21;17.55;;;9.45;;
62633;SDS011;48704;50.534;6.442;2022-07-22T13:45:48;17.50;;;9.80;;
62633;SDS011;48704;50.534;6.442;2022-07-22T13:48:14;18.95;;;10.50;;
62633;SDS011;48704;50.534;6.442;2022-07-22T13:50:42;17.75;;;10.07;;
62633;SDS011;48704;50.534;6.442;2022-07-22T13:53:07;21.98;;;10.65;;
62633;SDS011;48704;50.534;6.442;2022-07-22T13:55:33;16.05;;;10.63;;
62633;SDS011;48704;50.534;6.442;2022-07-22T13:57:59;18.67;;;10.80;;
62633;SDS011;48704;50.534;6.442;2022-07-22T14:00:24;15.57;;;9.73;;
62633;SDS011;48704;50.534;6.442;2022-07-22T14:02:50;18.67;;;10.73;;
62633;SDS011;48704;50.534;6.442;2022-07-22T14:05:17;16.42;;;10.07;;
62633;SDS011;48704;50.534;6.442;2022-07-22T14:07:43;19.33;;;10.75;;
62633;SDS011;48704;50.534;6.442;2022-07-22T14:10:10;18.25;;;11.45;;
62633;SDS011;48704;50.534;6.442;2022-07-22T14:12:36;17.52;;;11.35;;
62633;SDS011;48704;50.534;6.442;2022-07-22T14:15:01;19.92;;;10.93;;
62633;SDS011;48704;50.534;6.442;2022-07-22T14:17:27;19.95;;;10.20;;
62633;SDS011;48704;50.534;6.442;2022-07-22T14:19:53;17.63;;;10.50;;
62633;SDS011;48704;50.534;6.442;2022-07-22T14:22:19;17.23;;;10.38;;
62633;SDS011;48704;50.534;6.442;2022-07-22T14:24:45;20.98;;;11.18;;
62633;SDS011;48704;50.534;6.442;2022-07-22T14:27:11;20.50;;;10.63;;
62633;SDS011;48704;50.534;6.442;2022-07-22T14:29:36;19.50;;;11.32;;
62633;SDS011;48704;50.534;6.442;2022-07-22T14:32:02;19.58;;;10.90;;
62633;SDS011;48704;50.534;6.442;2022-07-22T14:34:28;16.65;;;10.15;;
62633;SDS011;48704;50.534;6.442;2022-07-22T14:36:53;15.50;;;9.15;;
62633;SDS011;48704;50.534;6.442;2022-07-22T14:39:19;15.95;;;10.02;;
62633;SDS011;48704;50.534;6.442;2022-07-22T14:41:45;20.40;;;11.10;;
62633;SDS011;48704;50.534;6.442;2022-07-22T14:44:11;18.52;;;10.27;;
62633;SDS011;48704;50.534;6.442;2022-07-22T14:46:38;18.42;;;10.93;;
62633;SDS011;48704;50.534;6.442;2022-07-22T14:49:03;18.45;;;10.65;;
62633;SDS011;48704;50.534;6.442;2022-07-22T14:51:29;16.95;;;9.98;;
62633;SDS011;48704;50.534;6.442;2022-07-22T14:53:55;16.90;;;10.02;;
62633;SDS011;48704;50.534;6.442;2022-07-22T14:56:20;19.65;;;11.88;;
62633;SDS011;48704;50.534;6.442;2022-07-22T14:58:46;18.85;;;11.18;;
62633;SDS011;48704;50.534;6.442;2022-07-22T15:01:12;16.02;;;9.85;;